sensor_id;sensor_type;location;lat;lon;timestamp;P1;durP1;ratioP1;P2;durP2;ratioP2
58017;SDS011;43810;50.860;19.226;2023-11-21T00:00:31;3.60;;;2.25;;
58017;SDS011;43810;50.860;19.226;2023-11-21T00:03:17;3.47;;;1.90;;
58017;SDS011;43810;50.860;19.226;2023-11-21T00:05:44;3.53;;;2.28;;
58017;SDS011;43810;50.860;19.226;2023-11-21T00:08:10;4.75;;;2.47;;
58017;SDS011;43810;50.860;19.226;2023-11-21T00:10:35;5.45;;;2.20;;
58017;SDS011;43810;50.860;19.226;2023-11-21T00:13:04;7.82;;;2.15;;
58017;SDS011;43810;50.860;19.226;2023-11-21T00:15:29;5.50;;;2.67;;
58017;SDS011;43810;50.860;19.226;2023-11-21T00:17:55;3.25;;;2.33;;
58017;SDS011;43810;50.860;19.226;2023-11-21T00:20:21;3.25;;;2.55;;
58017;SDS011;43810;50.860;19.226;2023-11-21T00:22:47;5.05;;;2.58;;
58017;SDS011;43810;50.860;19.226;2023-11-21T00:25:13;2.60;;;2.05;;
58017;SDS011;43810;50.860;19.226;2023-11-21T00:27:41;4.72;;;2.65;;
58017;SDS011;43810;50.860;19.226;2023-11-21T00:30:07;6.25;;;3.08;;
58017;SDS011;43810;50.860;19.226;2023-11-21T00:32:37;3.42;;;2.30;;
58017;SDS011;43810;50.860;19.226;2023-11-21T00:35:03;6.60;;;2.30;;
58017;SDS011;43810;50.860;19.226;2023-11-21T00:37:29;4.70;;;2.10;;
58017;SDS011;43810;50.860;19.226;2023-11-21T00:39:57;4.68;;;2.42;;
58017;SDS011;43810;50.860;19.226;2023-11-21T00:42:23;3.47;;;2.55;;
58017;SDS011;43810;50.860;19.226;2023-11-21T00:44:49;8.07;;;2.00;;
58017;SDS011;43810;50.860;19.226;2023-11-21T00:47:15;5.35;;;2.53;;
58017;SDS011;43810;50.860;19.226;2023-11-21T00:49:41;6.53;;;3.08;;
58017;SDS011;43810;50.860;19.226;2023-11-21T00:52:07;8.18;;;2.92;;
58017;SDS011;43810;50.860;19.226;2023-11-21T00:54:33;2.97;;;2.33;;
58017;SDS011;43810;50.860;19.226;2023-11-21T00:56:59;4.15;;;2.38;;
58017;SDS011;43810;50.860;19.226;2023-11-21T00:59:24;3.85;;;2.10;;
58017;SDS011;43810;50.860;19.226;2023-11-21T01:01:50;6.90;;;3.10;;
58017;SDS011;43810;50.860;19.226;2023-11-21T01:04:16;4.50;;;3.05;;
58017;SDS011;43810;50.860;19.226;2023-11-21T01:06:42;5.38;;;2.10;;
58017;SDS011;43810;50.860;19.226;2023-11-21T01:09:08;5.05;;;2.90;;
58017;SDS011;43810;50.860;19.226;2023-11-21T01:11:34;4.30;;;2.53;;
58017;SDS011;43810;50.860;19.226;2023-11-21T01:14:02;5.25;;;2.25;;
58017;SDS011;43810;50.860;19.226;2023-11-21T01:16:32;3.47;;;2.17;;
58017;SDS011;43810;50.860;19.226;2023-11-21T01:18:58;5.60;;;2.10;;
58017;SDS011;43810;50.860;19.226;2023-11-21T01:21:25;4.38;;;2.75;;
58017;SDS011;43810;50.860;19.226;2023-11-21T01:23:50;4.53;;;3.20;;
58017;SDS011;43810;50.860;19.226;2023-11-21T01:26:16;6.38;;;3.00;;
58017;SDS011;43810;50.860;19.226;2023-11-21T01:28:42;5.70;;;3.35;;
58017;SDS011;43810;50.860;19.226;2023-11-21T01:31:08;4.03;;;2.47;;
58017;SDS011;43810;50.860;19.226;2023-11-21T01:33:33;6.15;;;3.25;;
58017;SDS011;43810;50.860;19.226;2023-11-21T01:35:59;3.67;;;2.40;;
58017;SDS011;43810;50.860;19.226;2023-11-21T01:38:25;4.85;;;2.05;;
58017;SDS011;43810;50.860;19.226;2023-11-21T01:40:51;3.15;;;2.30;;
58017;SDS011;43810;50.860;19.226;2023-11-21T01:43:17;3.70;;;2.38;;
58017;SDS011;43810;50.860;19.226;2023-11-21T01:45:42;6.22;;;2.75;;
58017;SDS011;43810;50.860;19.226;2023-11-21T01:48:10;4.40;;;2.70;;
58017;SDS011;43810;50.860;19.226;2023-11-21T01:50:37;4.45;;;2.92;;
58017;SDS011;43810;50.860;19.226;2023-11-21T01:53:03;4.45;;;2.83;;
58017;SDS011;43810;50.860;19.226;2023-11-21T01:55:29;6.50;;;2.65;;
58017;SDS011;43810;50.860;19.226;2023-11-21T01:57:56;4.25;;;3.08;;
58017;SDS011;43810;50.860;19.226;2023-11-21T02:00:25;7.10;;;3.28;;
58017;SDS011;43810;50.860;19.226;2023-11-21T02:02:53;10.23;;;3.78;;
58017;SDS011;43810;50.860;19.226;2023-11-21T02:05:19;8.38;;;3.95;;
58017;SDS011;43810;50.860;19.226;2023-11-21T02:07:45;6.88;;;3.28;;
58017;SDS011;43810;50.860;19.226;2023-11-21T02:10:14;3.97;;;2.58;;
58017;SDS011;43810;50.860;19.226;2023-11-21T02:12:41;4.22;;;2.72;;
58017;SDS011;43810;50.860;19.226;2023-11-21T02:15:10;5.45;;;2.92;;
58017;SDS011;43810;50.860;19.226;2023-11-21T02:17:45;5.15;;;3.35;;
58017;SDS011;43810;50.860;19.226;2023-11-21T02:20:17;5.47;;;2.80;;
58017;SDS011;43810;50.860;19.226;2023-11-21T02:22:52;4.50;;;3.30;;
58017;SDS011;43810;50.860;19.226;2023-11-21T02:25:26;4.75;;;3.17;;
58017;SDS011;43810;50.860;19.226;2023-11-21T02:27:56;4.78;;;2.97;;
58017;SDS011;43810;50.860;19.226;2023-11-21T02:30:23;6.93;;;3.15;;
58017;SDS011;43810;50.860;19.226;2023-11-21T02:32:58;8.35;;;3.20;;
58017;SDS011;43810;50.860;19.226;2023-11-21T02:35:25;6.30;;;3.95;;
58017;SDS011;43810;50.860;19.226;2023-11-21T02:37:51;7.00;;;3.88;;
58017;SDS011;43810;50.860;19.226;2023-11-21T02:40:18;8.43;;;3.50;;
58017;SDS011;43810;50.860;19.226;2023-11-21T02:42:48;9.15;;;4.55;;
58017;SDS011;43810;50.860;19.226;2023-11-21T02:45:18;8.13;;;4.47;;
58017;SDS011;43810;50.860;19.226;2023-11-21T02:47:46;10.75;;;4.68;;
58017;SDS011;43810;50.860;19.226;2023-11-21T02:50:12;6.03;;;3.75;;
58017;SDS011;43810;50.860;19.226;2023-11-21T02:52:38;10.07;;;3.95;;
58017;SDS011;43810;50.860;19.226;2023-11-21T02:55:08;7.32;;;3.80;;
58017;SDS011;43810;50.860;19.226;2023-11-21T02:57:33;10.60;;;4.80;;
58017;SDS011;43810;50.860;19.226;2023-11-21T02:59:59;8.80;;;4.53;;
58017;SDS011;43810;50.860;19.226;2023-11-21T03:02:25;9.35;;;5.07;;
58017;SDS011;43810;50.860;19.226;2023-11-21T03:04:51;9.55;;;4.88;;
58017;SDS011;43810;50.860;19.226;2023-11-21T03:07:17;12.48;;;5.20;;
58017;SDS011;43810;50.860;19.226;2023-11-21T03:09:45;18.85;;;5.03;;
58017;SDS011;43810;50.860;19.226;2023-11-21T03:12:11;10.63;;;4.97;;
58017;SDS011;43810;50.860;19.226;2023-11-21T03:14:40;10.95;;;5.15;;
58017;SDS011;43810;50.860;19.226;2023-11-21T03:17:06;9.30;;;4.30;;
58017;SDS011;43810;50.860;19.226;2023-11-21T03:19:32;14.70;;;5.40;;
58017;SDS011;43810;50.860;19.226;2023-11-21T03:21:57;14.60;;;5.88;;
58017;SDS011;43810;50.860;19.226;2023-11-21T03:24:24;17.08;;;5.88;;
58017;SDS011;43810;50.860;19.226;2023-11-21T03:26:51;13.65;;;5.38;;
58017;SDS011;43810;50.860;19.226;2023-11-21T03:29:18;14.98;;;5.30;;
58017;SDS011;43810;50.860;19.226;2023-11-21T03:31:44;16.83;;;5.18;;
58017;SDS011;43810;50.860;19.226;2023-11-21T03:34:14;15.70;;;5.60;;
58017;SDS011;43810;50.860;19.226;2023-11-21T03:36:41;13.85;;;5.28;;
58017;SDS011;43810;50.860;19.226;2023-11-21T03:39:07;13.27;;;6.78;;
58017;SDS011;43810;50.860;19.226;2023-11-21T03:41:33;22.48;;;6.78;;
58017;SDS011;43810;50.860;19.226;2023-11-21T03:43:59;16.80;;;5.88;;
58017;SDS011;43810;50.860;19.226;2023-11-21T03:46:25;20.27;;;6.82;;
58017;SDS011;43810;50.860;19.226;2023-11-21T03:48:51;11.57;;;6.28;;
58017;SDS011;43810;50.860;19.226;2023-11-21T03:51:16;8.85;;;5.03;;
58017;SDS011;43810;50.860;19.226;2023-11-21T03:53:42;13.32;;;6.22;;
58017;SDS011;43810;50.860;19.226;2023-11-21T03:56:08;16.30;;;6.18;;
58017;SDS011;43810;50.860;19.226;2023-11-21T03:58:35;14.65;;;5.32;;
58017;SDS011;43810;50.860;19.226;2023-11-21T04:01:00;15.68;;;6.55;;
58017;SDS011;43810;50.860;19.226;2023-11-21T04:03:27;14.85;;;6.15;;
58017;SDS011;43810;50.860;19.226;2023-11-21T04:05:52;17.77;;;6.10;;
58017;SDS011;43810;50.860;19.226;2023-11-21T04:08:18;17.50;;;6.65;;
58017;SDS011;43810;50.860;19.226;2023-11-21T04:10:44;11.80;;;6.18;;
58017;SDS011;43810;50.860;19.226;2023-11-21T04:13:10;9.02;;;5.25;;
58017;SDS011;43810;50.860;19.226;2023-11-21T04:15:35;11.63;;;5.53;;
58017;SDS011;43810;50.860;19.226;2023-11-21T04:18:01;13.18;;;5.20;;
58017;SDS011;43810;50.860;19.226;2023-11-21T04:20:27;10.55;;;4.82;;
58017;SDS011;43810;50.860;19.226;2023-11-21T04:22:53;10.38;;;4.80;;
58017;SDS011;43810;50.860;19.226;2023-11-21T04:25:19;11.75;;;5.25;;
58017;SDS011;43810;50.860;19.226;2023-11-21T04:27:45;11.52;;;6.55;;
58017;SDS011;43810;50.860;19.226;2023-11-21T04:30:11;14.65;;;6.63;;
58017;SDS011;43810;50.860;19.226;2023-11-21T04:32:38;11.13;;;5.25;;
58017;SDS011;43810;50.860;19.226;2023-11-21T04:35:04;19.88;;;6.50;;
58017;SDS011;43810;50.860;19.226;2023-11-21T04:37:31;20.55;;;7.22;;
58017;SDS011;43810;50.860;19.226;2023-11-21T04:39:56;18.58;;;7.68;;
58017;SDS011;43810;50.860;19.226;2023-11-21T04:42:22;20.15;;;8.13;;
58017;SDS011;43810;50.860;19.226;2023-11-21T04:44:48;15.60;;;6.75;;
58017;SDS011;43810;50.860;19.226;2023-11-21T04:47:14;24.25;;;8.13;;
58017;SDS011;43810;50.860;19.226;2023-11-21T04:49:43;12.80;;;6.40;;
58017;SDS011;43810;50.860;19.226;2023-11-21T04:52:09;13.13;;;6.30;;
58017;SDS011;43810;50.860;19.226;2023-11-21T04:54:35;18.80;;;6.90;;
58017;SDS011;43810;50.860;19.226;2023-11-21T04:57:02;12.57;;;5.35;;
58017;SDS011;43810;50.860;19.226;2023-11-21T04:59:27;20.42;;;7.70;;
58017;SDS011;43810;50.860;19.226;2023-11-21T05:01:53;24.17;;;9.35;;
58017;SDS011;43810;50.860;19.226;2023-11-21T05:04:19;23.60;;;9.90;;
58017;SDS011;43810;50.860;19.226;2023-11-21T05:06:46;21.92;;;8.82;;
58017;SDS011;43810;50.860;19.226;2023-11-21T05:09:13;27.70;;;8.90;;
58017;SDS011;43810;50.860;19.226;2023-11-21T05:11:39;28.02;;;8.77;;
58017;SDS011;43810;50.860;19.226;2023-11-21T05:14:06;24.77;;;6.97;;
58017;SDS011;43810;50.860;19.226;2023-11-21T05:16:32;21.67;;;8.10;;
58017;SDS011;43810;50.860;19.226;2023-11-21T05:18:59;17.58;;;7.00;;
58017;SDS011;43810;50.860;19.226;2023-11-21T05:21:27;15.25;;;7.45;;
58017;SDS011;43810;50.860;19.226;2023-11-21T05:23:53;20.02;;;7.18;;
58017;SDS011;43810;50.860;19.226;2023-11-21T05:26:19;17.98;;;7.32;;
58017;SDS011;43810;50.860;19.226;2023-11-21T05:28:44;19.48;;;8.43;;
58017;SDS011;43810;50.860;19.226;2023-11-21T05:31:10;22.45;;;8.57;;
58017;SDS011;43810;50.860;19.226;2023-11-21T05:33:36;15.85;;;7.38;;
58017;SDS011;43810;50.860;19.226;2023-11-21T05:36:02;24.48;;;8.98;;
58017;SDS011;43810;50.860;19.226;2023-11-21T05:38:28;23.27;;;9.13;;
58017;SDS011;43810;50.860;19.226;2023-11-21T05:40:55;14.40;;;8.15;;
58017;SDS011;43810;50.860;19.226;2023-11-21T05:43:20;15.32;;;7.30;;
58017;SDS011;43810;50.860;19.226;2023-11-21T05:45:46;16.40;;;7.05;;
58017;SDS011;43810;50.860;19.226;2023-11-21T05:48:12;17.88;;;7.28;;
58017;SDS011;43810;50.860;19.226;2023-11-21T05:50:38;13.90;;;7.53;;
58017;SDS011;43810;50.860;19.226;2023-11-21T05:53:03;17.83;;;7.57;;
58017;SDS011;43810;50.860;19.226;2023-11-21T05:55:29;20.52;;;6.97;;
58017;SDS011;43810;50.860;19.226;2023-11-21T05:57:55;15.75;;;7.38;;
58017;SDS011;43810;50.860;19.226;2023-11-21T06:00:21;24.70;;;8.57;;
58017;SDS011;43810;50.860;19.226;2023-11-21T06:02:51;23.58;;;9.73;;
58017;SDS011;43810;50.860;19.226;2023-11-21T06:05:19;20.23;;;7.82;;
58017;SDS011;43810;50.860;19.226;2023-11-21T06:07:48;25.48;;;9.65;;
58017;SDS011;43810;50.860;19.226;2023-11-21T06:10:14;27.35;;;8.30;;
58017;SDS011;43810;50.860;19.226;2023-11-21T06:12:39;23.58;;;8.38;;
58017;SDS011;43810;50.860;19.226;2023-11-21T06:15:08;27.42;;;8.18;;
58017;SDS011;43810;50.860;19.226;2023-11-21T06:17:35;17.10;;;6.63;;
58017;SDS011;43810;50.860;19.226;2023-11-21T06:20:08;21.25;;;7.63;;
58017;SDS011;43810;50.860;19.226;2023-11-21T06:22:37;34.10;;;8.00;;
58017;SDS011;43810;50.860;19.226;2023-11-21T06:25:03;18.88;;;7.70;;
58017;SDS011;43810;50.860;19.226;2023-11-21T06:27:38;25.50;;;7.60;;
58017;SDS011;43810;50.860;19.226;2023-11-21T06:30:14;18.45;;;6.20;;
58017;SDS011;43810;50.860;19.226;2023-11-21T06:32:41;16.65;;;7.00;;
58017;SDS011;43810;50.860;19.226;2023-11-21T06:35:11;27.08;;;6.95;;
58017;SDS011;43810;50.860;19.226;2023-11-21T06:37:37;20.27;;;7.25;;
58017;SDS011;43810;50.860;19.226;2023-11-21T06:40:03;17.95;;;7.95;;
58017;SDS011;43810;50.860;19.226;2023-11-21T06:42:29;21.30;;;8.10;;
58017;SDS011;43810;50.860;19.226;2023-11-21T06:44:55;20.27;;;8.23;;
58017;SDS011;43810;50.860;19.226;2023-11-21T06:47:23;39.92;;;13.68;;
58017;SDS011;43810;50.860;19.226;2023-11-21T06:49:52;35.08;;;12.02;;
58017;SDS011;43810;50.860;19.226;2023-11-21T06:52:18;46.00;;;12.52;;
58017;SDS011;43810;50.860;19.226;2023-11-21T06:54:45;32.38;;;9.40;;
58017;SDS011;43810;50.860;19.226;2023-11-21T06:57:12;33.47;;;11.13;;
58017;SDS011;43810;50.860;19.226;2023-11-21T06:59:38;25.75;;;8.88;;
58017;SDS011;43810;50.860;19.226;2023-11-21T07:02:04;33.63;;;7.40;;
58017;SDS011;43810;50.860;19.226;2023-11-21T07:04:32;24.60;;;6.90;;
58017;SDS011;43810;50.860;19.226;2023-11-21T07:06:58;17.80;;;6.68;;
58017;SDS011;43810;50.860;19.226;2023-11-21T07:09:24;28.52;;;8.75;;
58017;SDS011;43810;50.860;19.226;2023-11-21T07:11:51;33.17;;;10.18;;
58017;SDS011;43810;50.860;19.226;2023-11-21T07:14:17;22.05;;;8.07;;
58017;SDS011;43810;50.860;19.226;2023-11-21T07:16:45;23.92;;;8.55;;
58017;SDS011;43810;50.860;19.226;2023-11-21T07:19:11;37.05;;;10.02;;
58017;SDS011;43810;50.860;19.226;2023-11-21T07:21:38;32.50;;;10.40;;
58017;SDS011;43810;50.860;19.226;2023-11-21T07:24:05;44.75;;;13.32;;
58017;SDS011;43810;50.860;19.226;2023-11-21T07:26:32;44.15;;;12.88;;
58017;SDS011;43810;50.860;19.226;2023-11-21T07:28:59;30.13;;;10.65;;
58017;SDS011;43810;50.860;19.226;2023-11-21T07:31:26;20.77;;;8.93;;
58017;SDS011;43810;50.860;19.226;2023-11-21T07:33:52;14.20;;;6.35;;
58017;SDS011;43810;50.860;19.226;2023-11-21T07:36:19;17.85;;;6.43;;
58017;SDS011;43810;50.860;19.226;2023-11-21T07:38:46;11.85;;;6.25;;
58017;SDS011;43810;50.860;19.226;2023-11-21T07:41:13;18.80;;;6.40;;
58017;SDS011;43810;50.860;19.226;2023-11-21T07:43:43;11.25;;;5.15;;
58017;SDS011;43810;50.860;19.226;2023-11-21T07:46:09;12.75;;;6.57;;
58017;SDS011;43810;50.860;19.226;2023-11-21T07:48:38;11.77;;;5.53;;
58017;SDS011;43810;50.860;19.226;2023-11-21T07:51:04;10.88;;;5.60;;
58017;SDS011;43810;50.860;19.226;2023-11-21T07:53:30;12.30;;;6.53;;
58017;SDS011;43810;50.860;19.226;2023-11-21T07:55:56;12.85;;;6.82;;
58017;SDS011;43810;50.860;19.226;2023-11-21T07:58:24;15.65;;;5.78;;
58017;SDS011;43810;50.860;19.226;2023-11-21T08:00:50;12.75;;;6.43;;
58017;SDS011;43810;50.860;19.226;2023-11-21T08:03:16;16.83;;;7.32;;
58017;SDS011;43810;50.860;19.226;2023-11-21T08:05:44;16.33;;;7.30;;
58017;SDS011;43810;50.860;19.226;2023-11-21T08:08:10;15.13;;;6.85;;
58017;SDS011;43810;50.860;19.226;2023-11-21T08:10:36;17.83;;;7.53;;
58017;SDS011;43810;50.860;19.226;2023-11-21T08:13:02;16.40;;;6.43;;
58017;SDS011;43810;50.860;19.226;2023-11-21T08:15:29;14.18;;;6.90;;
58017;SDS011;43810;50.860;19.226;2023-11-21T08:17:57;16.08;;;6.75;;
58017;SDS011;43810;50.860;19.226;2023-11-21T08:20:26;11.65;;;6.07;;
58017;SDS011;43810;50.860;19.226;2023-11-21T08:22:52;7.82;;;4.85;;
58017;SDS011;43810;50.860;19.226;2023-11-21T08:25:18;10.77;;;5.60;;
58017;SDS011;43810;50.860;19.226;2023-11-21T08:27:45;17.73;;;6.68;;
58017;SDS011;43810;50.860;19.226;2023-11-21T08:30:12;9.32;;;6.00;;
58017;SDS011;43810;50.860;19.226;2023-11-21T08:32:39;12.32;;;5.72;;
58017;SDS011;43810;50.860;19.226;2023-11-21T08:35:07;11.82;;;5.30;;
58017;SDS011;43810;50.860;19.226;2023-11-21T08:37:33;13.90;;;5.85;;
58017;SDS011;43810;50.860;19.226;2023-11-21T08:40:03;13.60;;;6.93;;
58017;SDS011;43810;50.860;19.226;2023-11-21T08:42:42;12.40;;;6.55;;
58017;SDS011;43810;50.860;19.226;2023-11-21T08:45:08;12.65;;;6.43;;
58017;SDS011;43810;50.860;19.226;2023-11-21T08:47:34;10.38;;;6.03;;
58017;SDS011;43810;50.860;19.226;2023-11-21T08:50:02;12.48;;;6.03;;
58017;SDS011;43810;50.860;19.226;2023-11-21T08:52:28;13.73;;;6.25;;
58017;SDS011;43810;50.860;19.226;2023-11-21T08:54:54;12.57;;;6.95;;
58017;SDS011;43810;50.860;19.226;2023-11-21T08:57:22;14.18;;;6.15;;
58017;SDS011;43810;50.860;19.226;2023-11-21T08:59:48;15.60;;;6.70;;
58017;SDS011;43810;50.860;19.226;2023-11-21T09:02:14;11.65;;;6.18;;
58017;SDS011;43810;50.860;19.226;2023-11-21T09:04:39;12.93;;;6.72;;
58017;SDS011;43810;50.860;19.226;2023-11-21T09:07:05;13.30;;;6.72;;
58017;SDS011;43810;50.860;19.226;2023-11-21T09:09:31;12.55;;;5.65;;
58017;SDS011;43810;50.860;19.226;2023-11-21T09:11:56;16.83;;;8.18;;
58017;SDS011;43810;50.860;19.226;2023-11-21T09:14:22;12.95;;;7.40;;
58017;SDS011;43810;50.860;19.226;2023-11-21T09:16:48;13.50;;;7.40;;
58017;SDS011;43810;50.860;19.226;2023-11-21T09:19:15;13.93;;;7.35;;
58017;SDS011;43810;50.860;19.226;2023-11-21T09:21:41;18.83;;;8.77;;
58017;SDS011;43810;50.860;19.226;2023-11-21T09:24:07;18.52;;;8.32;;
58017;SDS011;43810;50.860;19.226;2023-11-21T09:26:34;14.50;;;8.50;;
58017;SDS011;43810;50.860;19.226;2023-11-21T09:29:00;18.17;;;7.57;;
58017;SDS011;43810;50.860;19.226;2023-11-21T09:31:27;16.60;;;8.05;;
58017;SDS011;43810;50.860;19.226;2023-11-21T09:33:53;13.02;;;7.05;;
58017;SDS011;43810;50.860;19.226;2023-11-21T09:36:19;11.98;;;5.03;;
58017;SDS011;43810;50.860;19.226;2023-11-21T09:38:46;8.43;;;4.85;;
58017;SDS011;43810;50.860;19.226;2023-11-21T09:41:23;9.18;;;5.32;;
58017;SDS011;43810;50.860;19.226;2023-11-21T09:44:05;9.32;;;5.30;;
58017;SDS011;43810;50.860;19.226;2023-11-21T09:46:36;12.05;;;6.00;;
58017;SDS011;43810;50.860;19.226;2023-11-21T09:49:05;9.45;;;5.35;;
58017;SDS011;43810;50.860;19.226;2023-11-21T09:51:39;7.33;;;4.87;;
58017;SDS011;43810;50.860;19.226;2023-11-21T09:54:07;6.20;;;4.10;;
58017;SDS011;43810;50.860;19.226;2023-11-21T09:56:36;8.57;;;4.10;;
58017;SDS011;43810;50.860;19.226;2023-11-21T09:59:03;7.00;;;4.22;;
58017;SDS011;43810;50.860;19.226;2023-11-21T10:01:33;9.15;;;4.20;;
58017;SDS011;43810;50.860;19.226;2023-11-21T10:04:02;9.93;;;4.93;;
58017;SDS011;43810;50.860;19.226;2023-11-21T10:06:28;7.50;;;4.97;;
58017;SDS011;43810;50.860;19.226;2023-11-21T10:08:55;9.98;;;5.07;;
58017;SDS011;43810;50.860;19.226;2023-11-21T10:11:25;10.82;;;4.90;;
58017;SDS011;43810;50.860;19.226;2023-11-21T10:13:52;6.93;;;4.25;;
58017;SDS011;43810;50.860;19.226;2023-11-21T10:16:20;9.07;;;5.43;;
58017;SDS011;43810;50.860;19.226;2023-11-21T10:18:48;12.05;;;6.18;;
58017;SDS011;43810;50.860;19.226;2023-11-21T10:21:35;16.90;;;8.43;;
58017;SDS011;43810;50.860;19.226;2023-11-21T10:24:01;17.65;;;7.75;;
58017;SDS011;43810;50.860;19.226;2023-11-21T10:26:28;11.27;;;6.60;;
58017;SDS011;43810;50.860;19.226;2023-11-21T10:29:00;11.77;;;5.85;;
58017;SDS011;43810;50.860;19.226;2023-11-21T10:31:33;11.80;;;6.30;;
58017;SDS011;43810;50.860;19.226;2023-11-21T10:34:16;9.75;;;5.97;;
58017;SDS011;43810;50.860;19.226;2023-11-21T10:36:45;13.15;;;6.07;;
58017;SDS011;43810;50.860;19.226;2023-11-21T10:39:16;13.43;;;6.53;;
58017;SDS011;43810;50.860;19.226;2023-11-21T10:41:51;14.38;;;6.43;;
58017;SDS011;43810;50.860;19.226;2023-11-21T10:44:20;20.98;;;6.43;;
58017;SDS011;43810;50.860;19.226;2023-11-21T10:46:55;15.13;;;6.50;;
58017;SDS011;43810;50.860;19.226;2023-11-21T10:49:28;11.07;;;6.13;;
58017;SDS011;43810;50.860;19.226;2023-11-21T10:51:57;7.97;;;4.97;;
58017;SDS011;43810;50.860;19.226;2023-11-21T10:54:24;16.05;;;6.65;;
58017;SDS011;43810;50.860;19.226;2023-11-21T10:56:59;12.93;;;6.28;;
58017;SDS011;43810;50.860;19.226;2023-11-21T10:59:30;12.05;;;6.72;;
58017;SDS011;43810;50.860;19.226;2023-11-21T11:01:57;12.55;;;6.05;;
58017;SDS011;43810;50.860;19.226;2023-11-21T11:04:24;12.93;;;7.00;;
58017;SDS011;43810;50.860;19.226;2023-11-21T11:06:56;10.25;;;5.70;;
58017;SDS011;43810;50.860;19.226;2023-11-21T11:09:27;6.53;;;5.53;;
58017;SDS011;43810;50.860;19.226;2023-11-21T11:11:55;9.40;;;5.13;;
58017;SDS011;43810;50.860;19.226;2023-11-21T11:14:25;9.75;;;5.20;;
58017;SDS011;43810;50.860;19.226;2023-11-21T11:16:56;13.13;;;5.60;;
58017;SDS011;43810;50.860;19.226;2023-11-21T11:19:39;8.85;;;4.65;;
58017;SDS011;43810;50.860;19.226;2023-11-21T11:28:10;13.10;;;5.97;;
58017;SDS011;43810;50.860;19.226;2023-11-21T11:36:36;10.85;;;5.35;;
58017;SDS011;43810;50.860;19.226;2023-11-21T11:39:42;10.27;;;4.20;;
58017;SDS011;43810;50.860;19.226;2023-11-21T11:42:01;12.48;;;7.28;;
58017;SDS011;43810;50.860;19.226;2023-11-21T11:44:49;26.33;;;10.82;;
58017;SDS011;43810;50.860;19.226;2023-11-21T11:47:24;28.17;;;11.85;;
58017;SDS011;43810;50.860;19.226;2023-11-21T11:52:35;25.73;;;11.75;;
58017;SDS011;43810;50.860;19.226;2023-11-21T11:55:24;28.60;;;12.80;;
58017;SDS011;43810;50.860;19.226;2023-11-21T11:57:53;23.50;;;11.63;;
58017;SDS011;43810;50.860;19.226;2023-11-21T12:02:56;27.92;;;12.10;;
58017;SDS011;43810;50.860;19.226;2023-11-21T12:05:25;26.83;;;13.07;;
58017;SDS011;43810;50.860;19.226;2023-11-21T12:07:59;20.70;;;10.48;;
58017;SDS011;43810;50.860;19.226;2023-11-21T12:10:35;24.75;;;10.77;;
58017;SDS011;43810;50.860;19.226;2023-11-21T12:13:08;27.00;;;11.45;;
58017;SDS011;43810;50.860;19.226;2023-11-21T12:15:49;24.15;;;9.85;;
58017;SDS011;43810;50.860;19.226;2023-11-21T12:18:15;22.63;;;9.10;;
58017;SDS011;43810;50.860;19.226;2023-11-21T12:20:41;25.02;;;9.57;;
58017;SDS011;43810;50.860;19.226;2023-11-21T12:23:08;18.60;;;8.40;;
58017;SDS011;43810;50.860;19.226;2023-11-21T12:25:35;23.83;;;9.07;;
58017;SDS011;43810;50.860;19.226;2023-11-21T12:28:05;22.60;;;10.20;;
58017;SDS011;43810;50.860;19.226;2023-11-21T12:30:33;22.55;;;9.77;;
58017;SDS011;43810;50.860;19.226;2023-11-21T12:33:04;29.42;;;10.70;;
58017;SDS011;43810;50.860;19.226;2023-11-21T12:35:33;22.25;;;10.85;;
58017;SDS011;43810;50.860;19.226;2023-11-21T12:38:02;22.55;;;9.18;;
58017;SDS011;43810;50.860;19.226;2023-11-21T12:40:30;21.70;;;9.77;;
58017;SDS011;43810;50.860;19.226;2023-11-21T12:43:02;27.30;;;8.38;;
58017;SDS011;43810;50.860;19.226;2023-11-21T12:45:36;24.85;;;9.98;;
58017;SDS011;43810;50.860;19.226;2023-11-21T12:48:04;22.70;;;8.85;;
58017;SDS011;43810;50.860;19.226;2023-11-21T12:50:37;17.85;;;7.88;;
58017;SDS011;43810;50.860;19.226;2023-11-21T12:53:07;25.30;;;9.50;;
58017;SDS011;43810;50.860;19.226;2023-11-21T12:55:34;18.80;;;8.20;;
58017;SDS011;43810;50.860;19.226;2023-11-21T12:58:07;26.25;;;10.60;;
58017;SDS011;43810;50.860;19.226;2023-11-21T13:00:47;25.08;;;10.65;;
58017;SDS011;43810;50.860;19.226;2023-11-21T13:03:15;26.00;;;10.20;;
58017;SDS011;43810;50.860;19.226;2023-11-21T13:05:44;25.70;;;12.05;;
58017;SDS011;43810;50.860;19.226;2023-11-21T13:08:19;30.85;;;11.18;;
58017;SDS011;43810;50.860;19.226;2023-11-21T13:10:55;30.73;;;10.73;;
58017;SDS011;43810;50.860;19.226;2023-11-21T13:13:29;27.92;;;11.18;;
58017;SDS011;43810;50.860;19.226;2023-11-21T13:15:55;27.52;;;9.98;;
58017;SDS011;43810;50.860;19.226;2023-11-21T13:18:25;23.55;;;10.30;;
58017;SDS011;43810;50.860;19.226;2023-11-21T13:20:55;27.77;;;11.40;;
58017;SDS011;43810;50.860;19.226;2023-11-21T13:23:23;23.85;;;10.60;;
58017;SDS011;43810;50.860;19.226;2023-11-21T13:25:49;30.10;;;11.35;;
58017;SDS011;43810;50.860;19.226;2023-11-21T13:28:15;27.55;;;10.55;;
58017;SDS011;43810;50.860;19.226;2023-11-21T13:30:50;25.83;;;10.63;;
58017;SDS011;43810;50.860;19.226;2023-11-21T13:33:18;28.67;;;10.32;;
58017;SDS011;43810;50.860;19.226;2023-11-21T13:35:56;22.95;;;8.88;;
58017;SDS011;43810;50.860;19.226;2023-11-21T13:38:22;34.78;;;12.15;;
58017;SDS011;43810;50.860;19.226;2023-11-21T13:43:28;24.40;;;11.52;;
58017;SDS011;43810;50.860;19.226;2023-11-21T13:45:54;32.22;;;13.45;;
58017;SDS011;43810;50.860;19.226;2023-11-21T13:48:38;36.05;;;12.57;;
58017;SDS011;43810;50.860;19.226;2023-11-21T13:51:14;33.83;;;12.60;;
58017;SDS011;43810;50.860;19.226;2023-11-21T13:53:43;36.08;;;12.85;;
58017;SDS011;43810;50.860;19.226;2023-11-21T13:56:11;33.72;;;12.45;;
58017;SDS011;43810;50.860;19.226;2023-11-21T13:58:43;20.23;;;11.23;;
58017;SDS011;43810;50.860;19.226;2023-11-21T14:01:18;25.73;;;11.32;;
58017;SDS011;43810;50.860;19.226;2023-11-21T14:03:54;47.38;;;13.07;;
58017;SDS011;43810;50.860;19.226;2023-11-21T14:06:31;27.80;;;12.30;;
58017;SDS011;43810;50.860;19.226;2023-11-21T14:09:05;19.27;;;8.40;;
58017;SDS011;43810;50.860;19.226;2023-11-21T14:11:32;27.38;;;10.40;;
58017;SDS011;43810;50.860;19.226;2023-11-21T14:14:00;21.45;;;10.27;;
58017;SDS011;43810;50.860;19.226;2023-11-21T14:16:26;22.10;;;10.30;;
58017;SDS011;43810;50.860;19.226;2023-11-21T14:18:51;24.95;;;9.93;;
58017;SDS011;43810;50.860;19.226;2023-11-21T14:21:30;27.60;;;10.50;;
58017;SDS011;43810;50.860;19.226;2023-11-21T14:23:55;17.60;;;9.57;;
58017;SDS011;43810;50.860;19.226;2023-11-21T14:26:21;24.55;;;9.43;;
58017;SDS011;43810;50.860;19.226;2023-11-21T14:28:50;33.80;;;10.18;;
58017;SDS011;43810;50.860;19.226;2023-11-21T14:31:17;21.85;;;11.32;;
58017;SDS011;43810;50.860;19.226;2023-11-21T14:33:45;21.60;;;9.88;;
58017;SDS011;43810;50.860;19.226;2023-11-21T14:36:12;25.05;;;10.35;;
58017;SDS011;43810;50.860;19.226;2023-11-21T14:38:38;19.80;;;9.63;;
58017;SDS011;43810;50.860;19.226;2023-11-21T14:41:05;20.25;;;8.50;;
58017;SDS011;43810;50.860;19.226;2023-11-21T14:43:35;19.10;;;10.10;;
58017;SDS011;43810;50.860;19.226;2023-11-21T14:46:13;21.40;;;9.35;;
58017;SDS011;43810;50.860;19.226;2023-11-21T14:48:44;12.07;;;7.00;;